sensor_id;sensor_type;location;lat;lon;timestamp;P1;durP1;ratioP1;P2;durP2;ratioP2
14342;SDS011;7255;53.596;9.960;2023-04-24T00:00:11;6.30;;;5.70;;
14342;SDS011;7255;53.596;9.960;2023-04-24T00:02:39;7.22;;;5.72;;
14342;SDS011;7255;53.596;9.960;2023-04-24T00:05:07;8.48;;;5.82;;
14342;SDS011;7255;53.596;9.960;2023-04-24T00:07:34;8.23;;;6.35;;
14342;SDS011;7255;53.596;9.960;2023-04-24T00:10:00;6.30;;;5.70;;
14342;SDS011;7255;53.596;9.960;2023-04-24T00:12:27;7.15;;;5.28;;
14342;SDS011;7255;53.596;9.960;2023-04-24T00:14:53;6.85;;;6.15;;
14342;SDS011;7255;53.596;9.960;2023-04-24T00:17:20;7.20;;;5.78;;
14342;SDS011;7255;53.596;9.960;2023-04-24T00:19:46;7.37;;;5.60;;
14342;SDS011;7255;53.596;9.960;2023-04-24T00:22:14;8.25;;;6.55;;
14342;SDS011;7255;53.596;9.960;2023-04-24T00:24:40;7.15;;;6.40;;
14342;SDS011;7255;53.596;9.960;2023-04-24T00:27:06;6.82;;;5.82;;
14342;SDS011;7255;53.596;9.960;2023-04-24T00:29:33;6.00;;;5.40;;
14342;SDS011;7255;53.596;9.960;2023-04-24T00:31:59;8.75;;;6.97;;
14342;SDS011;7255;53.596;9.960;2023-04-24T00:34:26;5.70;;;5.10;;
14342;SDS011;7255;53.596;9.960;2023-04-24T00:36:52;7.15;;;6.05;;
14342;SDS011;7255;53.596;9.960;2023-04-24T00:39:19;6.82;;;5.72;;
14342;SDS011;7255;53.596;9.960;2023-04-24T00:41:46;6.97;;;6.37;;
14342;SDS011;7255;53.596;9.960;2023-04-24T00:44:13;8.05;;;6.30;;
14342;SDS011;7255;53.596;9.960;2023-04-24T00:46:40;7.68;;;6.05;;
14342;SDS011;7255;53.596;9.960;2023-04-24T00:49:06;7.37;;;6.00;;
14342;SDS011;7255;53.596;9.960;2023-04-24T00:51:33;5.82;;;5.22;;
14342;SDS011;7255;53.596;9.960;2023-04-24T00:53:59;7.03;;;5.80;;
14342;SDS011;7255;53.596;9.960;2023-04-24T00:56:27;6.50;;;5.07;;
14342;SDS011;7255;53.596;9.960;2023-04-24T00:58:54;6.30;;;5.55;;
14342;SDS011;7255;53.596;9.960;2023-04-24T01:01:21;9.55;;;5.62;;
14342;SDS011;7255;53.596;9.960;2023-04-24T01:03:48;7.35;;;6.57;;
14342;SDS011;7255;53.596;9.960;2023-04-24T01:06:16;6.95;;;5.78;;
14342;SDS011;7255;53.596;9.960;2023-04-24T01:08:44;6.25;;;5.53;;
14342;SDS011;7255;53.596;9.960;2023-04-24T01:11:12;6.72;;;6.03;;
14342;SDS011;7255;53.596;9.960;2023-04-24T01:13:39;7.03;;;5.90;;
14342;SDS011;7255;53.596;9.960;2023-04-24T01:16:06;7.60;;;6.28;;
14342;SDS011;7255;53.596;9.960;2023-04-24T01:18:32;5.75;;;5.25;;
14342;SDS011;7255;53.596;9.960;2023-04-24T01:20:59;6.15;;;5.55;;
14342;SDS011;7255;53.596;9.960;2023-04-24T01:23:31;7.93;;;5.85;;
14342;SDS011;7255;53.596;9.960;2023-04-24T01:25:57;6.20;;;5.57;;
14342;SDS011;7255;53.596;9.960;2023-04-24T01:28:24;7.10;;;5.35;;
14342;SDS011;7255;53.596;9.960;2023-04-24T01:30:50;5.87;;;5.18;;
14342;SDS011;7255;53.596;9.960;2023-04-24T01:33:17;5.35;;;4.85;;
14342;SDS011;7255;53.596;9.960;2023-04-24T01:35:43;5.65;;;5.15;;
14342;SDS011;7255;53.596;9.960;2023-04-24T01:38:10;6.00;;;5.45;;
14342;SDS011;7255;53.596;9.960;2023-04-24T01:40:38;5.78;;;5.18;;
14342;SDS011;7255;53.596;9.960;2023-04-24T01:43:04;5.82;;;4.70;;
14342;SDS011;7255;53.596;9.960;2023-04-24T01:45:31;5.57;;;5.07;;
14342;SDS011;7255;53.596;9.960;2023-04-24T01:47:57;5.55;;;5.00;;
14342;SDS011;7255;53.596;9.960;2023-04-24T01:50:24;5.93;;;4.80;;
14342;SDS011;7255;53.596;9.960;2023-04-24T01:52:51;6.07;;;5.25;;
14342;SDS011;7255;53.596;9.960;2023-04-24T01:55:17;5.28;;;4.78;;
14342;SDS011;7255;53.596;9.960;2023-04-24T01:57:45;4.30;;;3.90;;
14342;SDS011;7255;53.596;9.960;2023-04-24T02:00:11;5.32;;;4.82;;
14342;SDS011;7255;53.596;9.960;2023-04-24T02:02:38;3.90;;;3.50;;
14342;SDS011;7255;53.596;9.960;2023-04-24T02:05:06;3.90;;;3.47;;
14342;SDS011;7255;53.596;9.960;2023-04-24T02:07:33;3.90;;;3.53;;
14342;SDS011;7255;53.596;9.960;2023-04-24T02:09:59;5.43;;;3.35;;
14342;SDS011;7255;53.596;9.960;2023-04-24T02:12:26;5.00;;;4.00;;
14342;SDS011;7255;53.596;9.960;2023-04-24T02:14:53;4.97;;;3.58;;
14342;SDS011;7255;53.596;9.960;2023-04-24T02:17:20;3.65;;;3.35;;
14342;SDS011;7255;53.596;9.960;2023-04-24T02:19:46;4.12;;;3.03;;
14342;SDS011;7255;53.596;9.960;2023-04-24T02:22:13;4.97;;;2.90;;
14342;SDS011;7255;53.596;9.960;2023-04-24T02:24:39;3.37;;;3.08;;
14342;SDS011;7255;53.596;9.960;2023-04-24T02:27:06;3.22;;;2.85;;
14342;SDS011;7255;53.596;9.960;2023-04-24T02:29:32;2.75;;;2.55;;
14342;SDS011;7255;53.596;9.960;2023-04-24T02:32:00;2.67;;;2.47;;
14342;SDS011;7255;53.596;9.960;2023-04-24T02:34:26;3.35;;;2.95;;
14342;SDS011;7255;53.596;9.960;2023-04-24T02:36:52;2.83;;;2.62;;
14342;SDS011;7255;53.596;9.960;2023-04-24T02:39:19;2.97;;;2.65;;
14342;SDS011;7255;53.596;9.960;2023-04-24T02:41:46;3.20;;;2.75;;
14342;SDS011;7255;53.596;9.960;2023-04-24T02:44:12;2.67;;;2.47;;
14342;SDS011;7255;53.596;9.960;2023-04-24T02:46:38;3.12;;;2.80;;
14342;SDS011;7255;53.596;9.960;2023-04-24T02:49:07;2.90;;;2.70;;
14342;SDS011;7255;53.596;9.960;2023-04-24T02:51:33;3.28;;;2.97;;
14342;SDS011;7255;53.596;9.960;2023-04-24T02:54:00;2.90;;;2.70;;
14342;SDS011;7255;53.596;9.960;2023-04-24T02:56:26;3.40;;;2.83;;
14342;SDS011;7255;53.596;9.960;2023-04-24T02:58:52;3.20;;;2.90;;
14342;SDS011;7255;53.596;9.960;2023-04-24T03:01:18;2.90;;;2.60;;
14342;SDS011;7255;53.596;9.960;2023-04-24T03:03:45;4.57;;;3.05;;
14342;SDS011;7255;53.596;9.960;2023-04-24T03:06:13;3.50;;;3.12;;
14342;SDS011;7255;53.596;9.960;2023-04-24T03:08:39;3.37;;;2.97;;
14342;SDS011;7255;53.596;9.960;2023-04-24T03:11:05;4.18;;;2.83;;
14342;SDS011;7255;53.596;9.960;2023-04-24T03:13:32;4.30;;;2.72;;
14342;SDS011;7255;53.596;9.960;2023-04-24T03:15:58;5.12;;;2.70;;
14342;SDS011;7255;53.596;9.960;2023-04-24T03:18:24;2.90;;;2.70;;
14342;SDS011;7255;53.596;9.960;2023-04-24T03:20:51;2.97;;;2.72;;
14342;SDS011;7255;53.596;9.960;2023-04-24T03:23:19;2.90;;;2.70;;
14342;SDS011;7255;53.596;9.960;2023-04-24T03:25:45;2.90;;;2.30;;
14342;SDS011;7255;53.596;9.960;2023-04-24T03:28:13;3.67;;;3.37;;
14342;SDS011;7255;53.596;9.960;2023-04-24T03:30:39;2.80;;;2.53;;
14342;SDS011;7255;53.596;9.960;2023-04-24T03:33:06;3.97;;;2.60;;
14342;SDS011;7255;53.596;9.960;2023-04-24T03:35:32;2.55;;;2.35;;
14342;SDS011;7255;53.596;9.960;2023-04-24T03:37:58;2.55;;;2.35;;
14342;SDS011;7255;53.596;9.960;2023-04-24T03:40:26;3.00;;;2.78;;
14342;SDS011;7255;53.596;9.960;2023-04-24T03:42:54;2.95;;;2.70;;
14342;SDS011;7255;53.596;9.960;2023-04-24T03:45:21;2.47;;;2.27;;
14342;SDS011;7255;53.596;9.960;2023-04-24T03:47:47;2.72;;;2.45;;
14342;SDS011;7255;53.596;9.960;2023-04-24T03:50:13;3.53;;;3.03;;
14342;SDS011;7255;53.596;9.960;2023-04-24T03:52:40;3.23;;;2.93;;
14342;SDS011;7255;53.596;9.960;2023-04-24T03:55:06;3.80;;;2.90;;
14342;SDS011;7255;53.596;9.960;2023-04-24T03:57:34;4.00;;;2.87;;
14342;SDS011;7255;53.596;9.960;2023-04-24T04:00:01;3.03;;;2.83;;
14342;SDS011;7255;53.596;9.960;2023-04-24T04:02:29;3.33;;;3.00;;
14342;SDS011;7255;53.596;9.960;2023-04-24T04:04:56;3.10;;;2.80;;
14342;SDS011;7255;53.596;9.960;2023-04-24T04:07:22;2.57;;;2.37;;
14342;SDS011;7255;53.596;9.960;2023-04-24T04:09:48;3.00;;;2.80;;
14342;SDS011;7255;53.596;9.960;2023-04-24T04:12:14;2.87;;;2.62;;
14342;SDS011;7255;53.596;9.960;2023-04-24T04:14:42;3.07;;;2.77;;
14342;SDS011;7255;53.596;9.960;2023-04-24T04:17:08;3.00;;;2.70;;
14342;SDS011;7255;53.596;9.960;2023-04-24T04:19:35;3.60;;;2.63;;
14342;SDS011;7255;53.596;9.960;2023-04-24T04:22:01;2.67;;;2.47;;
14342;SDS011;7255;53.596;9.960;2023-04-24T04:24:27;3.27;;;2.27;;
14342;SDS011;7255;53.596;9.960;2023-04-24T04:26:54;2.50;;;2.30;;
14342;SDS011;7255;53.596;9.960;2023-04-24T04:29:21;2.90;;;2.70;;
14342;SDS011;7255;53.596;9.960;2023-04-24T04:31:50;2.53;;;2.25;;
14342;SDS011;7255;53.596;9.960;2023-04-24T04:34:16;2.20;;;2.10;;
14342;SDS011;7255;53.596;9.960;2023-04-24T04:36:43;2.13;;;1.93;;
14342;SDS011;7255;53.596;9.960;2023-04-24T04:39:11;2.20;;;2.00;;
14342;SDS011;7255;53.596;9.960;2023-04-24T04:41:39;2.10;;;2.00;;
14342;SDS011;7255;53.596;9.960;2023-04-24T04:44:06;2.30;;;2.10;;
14342;SDS011;7255;53.596;9.960;2023-04-24T04:46:33;2.50;;;2.30;;
14342;SDS011;7255;53.596;9.960;2023-04-24T04:49:03;2.33;;;2.13;;
14342;SDS011;7255;53.596;9.960;2023-04-24T04:51:30;3.00;;;1.85;;
14342;SDS011;7255;53.596;9.960;2023-04-24T04:53:56;2.50;;;2.00;;
14342;SDS011;7255;53.596;9.960;2023-04-24T04:56:23;2.37;;;2.17;;
14342;SDS011;7255;53.596;9.960;2023-04-24T04:58:49;2.53;;;2.33;;
14342;SDS011;7255;53.596;9.960;2023-04-24T05:01:16;2.78;;;1.90;;
14342;SDS011;7255;53.596;9.960;2023-04-24T05:03:42;1.67;;;1.55;;
14342;SDS011;7255;53.596;9.960;2023-04-24T05:06:10;1.70;;;1.60;;
14342;SDS011;7255;53.596;9.960;2023-04-24T05:08:36;2.08;;;1.90;;
14342;SDS011;7255;53.596;9.960;2023-04-24T05:11:02;1.90;;;1.70;;
14342;SDS011;7255;53.596;9.960;2023-04-24T05:13:29;2.03;;;1.40;;
14342;SDS011;7255;53.596;9.960;2023-04-24T05:15:55;2.35;;;2.10;;
14342;SDS011;7255;53.596;9.960;2023-04-24T05:18:21;2.03;;;1.70;;
14342;SDS011;7255;53.596;9.960;2023-04-24T05:20:47;1.77;;;1.67;;
14342;SDS011;7255;53.596;9.960;2023-04-24T05:23:15;1.70;;;1.60;;
14342;SDS011;7255;53.596;9.960;2023-04-24T05:25:41;3.00;;;1.62;;
14342;SDS011;7255;53.596;9.960;2023-04-24T05:28:08;2.00;;;1.80;;
14342;SDS011;7255;53.596;9.960;2023-04-24T05:30:34;1.60;;;1.50;;
14342;SDS011;7255;53.596;9.960;2023-04-24T05:33:01;1.70;;;1.60;;
14342;SDS011;7255;53.596;9.960;2023-04-24T05:35:27;1.80;;;1.70;;
14342;SDS011;7255;53.596;9.960;2023-04-24T05:37:54;2.15;;;1.60;;
14342;SDS011;7255;53.596;9.960;2023-04-24T05:40:21;2.90;;;1.85;;
14342;SDS011;7255;53.596;9.960;2023-04-24T05:42:48;2.25;;;2.03;;
14342;SDS011;7255;53.596;9.960;2023-04-24T05:45:14;1.27;;;1.20;;
14342;SDS011;7255;53.596;9.960;2023-04-24T05:47:41;2.87;;;1.77;;
14342;SDS011;7255;53.596;9.960;2023-04-24T05:50:08;1.83;;;1.70;;
14342;SDS011;7255;53.596;9.960;2023-04-24T05:52:35;1.90;;;1.80;;
14342;SDS011;7255;53.596;9.960;2023-04-24T05:55:01;2.28;;;2.08;;
14342;SDS011;7255;53.596;9.960;2023-04-24T05:57:29;1.60;;;1.50;;
14342;SDS011;7255;53.596;9.960;2023-04-24T05:59:55;1.90;;;1.80;;
14342;SDS011;7255;53.596;9.960;2023-04-24T06:02:22;1.87;;;1.77;;
14342;SDS011;7255;53.596;9.960;2023-04-24T06:04:48;1.77;;;1.67;;
14342;SDS011;7255;53.596;9.960;2023-04-24T06:07:14;2.12;;;1.70;;
14342;SDS011;7255;53.596;9.960;2023-04-24T06:09:40;2.87;;;1.80;;
14342;SDS011;7255;53.596;9.960;2023-04-24T06:12:07;1.87;;;1.77;;
14342;SDS011;7255;53.596;9.960;2023-04-24T06:14:35;2.12;;;1.87;;
14342;SDS011;7255;53.596;9.960;2023-04-24T06:17:01;1.80;;;1.70;;
14342;SDS011;7255;53.596;9.960;2023-04-24T06:19:28;3.05;;;2.00;;
14342;SDS011;7255;53.596;9.960;2023-04-24T06:21:54;1.80;;;1.70;;
14342;SDS011;7255;53.596;9.960;2023-04-24T06:24:20;2.37;;;1.90;;
14342;SDS011;7255;53.596;9.960;2023-04-24T06:26:47;2.40;;;2.20;;
14342;SDS011;7255;53.596;9.960;2023-04-24T06:29:13;2.10;;;1.90;;
14342;SDS011;7255;53.596;9.960;2023-04-24T06:31:40;2.12;;;1.92;;
14342;SDS011;7255;53.596;9.960;2023-04-24T06:34:07;3.55;;;1.80;;
14342;SDS011;7255;53.596;9.960;2023-04-24T06:36:33;2.20;;;1.98;;
14342;SDS011;7255;53.596;9.960;2023-04-24T06:39:00;1.87;;;1.77;;
14342;SDS011;7255;53.596;9.960;2023-04-24T06:41:27;1.73;;;1.60;;
14342;SDS011;7255;53.596;9.960;2023-04-24T06:43:54;2.35;;;1.75;;
14342;SDS011;7255;53.596;9.960;2023-04-24T06:46:20;1.90;;;1.70;;
14342;SDS011;7255;53.596;9.960;2023-04-24T06:48:50;2.15;;;1.95;;
14342;SDS011;7255;53.596;9.960;2023-04-24T06:51:16;1.73;;;1.62;;
14342;SDS011;7255;53.596;9.960;2023-04-24T06:53:43;1.60;;;1.50;;
14342;SDS011;7255;53.596;9.960;2023-04-24T06:56:09;2.28;;;1.52;;
14342;SDS011;7255;53.596;9.960;2023-04-24T06:58:36;1.85;;;1.73;;
14342;SDS011;7255;53.596;9.960;2023-04-24T07:01:02;2.05;;;1.90;;
14342;SDS011;7255;53.596;9.960;2023-04-24T07:03:28;2.15;;;1.75;;
14342;SDS011;7255;53.596;9.960;2023-04-24T07:05:56;1.77;;;1.67;;
14342;SDS011;7255;53.596;9.960;2023-04-24T07:08:23;1.80;;;1.70;;
14342;SDS011;7255;53.596;9.960;2023-04-24T07:10:50;2.12;;;1.80;;
14342;SDS011;7255;53.596;9.960;2023-04-24T07:13:16;2.37;;;2.17;;
14342;SDS011;7255;53.596;9.960;2023-04-24T07:15:43;2.00;;;1.90;;
14342;SDS011;7255;53.596;9.960;2023-04-24T07:18:09;2.40;;;2.20;;
14342;SDS011;7255;53.596;9.960;2023-04-24T07:20:36;2.35;;;2.15;;
14342;SDS011;7255;53.596;9.960;2023-04-24T07:23:03;2.40;;;2.20;;
14342;SDS011;7255;53.596;9.960;2023-04-24T07:25:30;2.30;;;2.10;;
14342;SDS011;7255;53.596;9.960;2023-04-24T07:27:56;2.40;;;2.20;;
14342;SDS011;7255;53.596;9.960;2023-04-24T07:30:23;2.30;;;2.10;;
14342;SDS011;7255;53.596;9.960;2023-04-24T07:32:49;2.65;;;2.22;;
14342;SDS011;7255;53.596;9.960;2023-04-24T07:35:15;3.62;;;2.42;;
14342;SDS011;7255;53.596;9.960;2023-04-24T07:37:42;3.22;;;2.65;;
14342;SDS011;7255;53.596;9.960;2023-04-24T07:40:12;2.25;;;2.10;;
14342;SDS011;7255;53.596;9.960;2023-04-24T07:42:38;2.25;;;2.15;;
14342;SDS011;7255;53.596;9.960;2023-04-24T07:45:05;4.18;;;2.70;;
14342;SDS011;7255;53.596;9.960;2023-04-24T07:47:32;4.00;;;2.67;;
14342;SDS011;7255;53.596;9.960;2023-04-24T07:49:59;3.15;;;2.85;;
14342;SDS011;7255;53.596;9.960;2023-04-24T07:52:26;2.90;;;2.70;;
14342;SDS011;7255;53.596;9.960;2023-04-24T07:54:52;3.00;;;2.60;;
14342;SDS011;7255;53.596;9.960;2023-04-24T07:57:24;3.42;;;3.12;;
14342;SDS011;7255;53.596;9.960;2023-04-24T07:59:50;3.22;;;2.87;;
14342;SDS011;7255;53.596;9.960;2023-04-24T08:02:17;3.22;;;2.92;;
14342;SDS011;7255;53.596;9.960;2023-04-24T08:04:43;3.20;;;3.00;;
14342;SDS011;7255;53.596;9.960;2023-04-24T08:07:10;3.50;;;3.20;;
14342;SDS011;7255;53.596;9.960;2023-04-24T08:09:37;3.72;;;3.33;;
14342;SDS011;7255;53.596;9.960;2023-04-24T08:12:04;3.30;;;3.00;;
14342;SDS011;7255;53.596;9.960;2023-04-24T08:14:32;3.22;;;2.95;;
14342;SDS011;7255;53.596;9.960;2023-04-24T08:16:58;3.17;;;2.90;;
14342;SDS011;7255;53.596;9.960;2023-04-24T08:19:25;6.18;;;3.55;;
14342;SDS011;7255;53.596;9.960;2023-04-24T08:21:51;5.87;;;3.87;;
14342;SDS011;7255;53.596;9.960;2023-04-24T08:24:18;3.45;;;3.15;;
14342;SDS011;7255;53.596;9.960;2023-04-24T08:26:44;3.60;;;3.30;;
14342;SDS011;7255;53.596;9.960;2023-04-24T08:29:10;4.35;;;3.40;;
14342;SDS011;7255;53.596;9.960;2023-04-24T08:31:38;3.72;;;3.08;;
14342;SDS011;7255;53.596;9.960;2023-04-24T08:34:04;3.87;;;3.45;;
14342;SDS011;7255;53.596;9.960;2023-04-24T08:36:31;3.75;;;3.45;;
14342;SDS011;7255;53.596;9.960;2023-04-24T08:38:58;5.05;;;3.53;;
14342;SDS011;7255;53.596;9.960;2023-04-24T08:41:24;3.67;;;3.20;;
14342;SDS011;7255;53.596;9.960;2023-04-24T08:43:52;3.70;;;3.37;;
14342;SDS011;7255;53.596;9.960;2023-04-24T08:46:20;4.40;;;3.25;;
14342;SDS011;7255;53.596;9.960;2023-04-24T08:48:49;3.37;;;3.08;;
14342;SDS011;7255;53.596;9.960;2023-04-24T08:51:17;4.70;;;3.20;;
14342;SDS011;7255;53.596;9.960;2023-04-24T08:53:44;3.33;;;3.08;;
14342;SDS011;7255;53.596;9.960;2023-04-24T08:56:12;3.40;;;3.10;;
14342;SDS011;7255;53.596;9.960;2023-04-24T08:58:39;3.65;;;3.35;;
14342;SDS011;7255;53.596;9.960;2023-04-24T09:01:06;4.20;;;3.80;;
14342;SDS011;7255;53.596;9.960;2023-04-24T09:03:33;5.18;;;3.40;;
14342;SDS011;7255;53.596;9.960;2023-04-24T09:06:01;3.67;;;3.37;;
14342;SDS011;7255;53.596;9.960;2023-04-24T09:08:28;4.32;;;3.60;;
14342;SDS011;7255;53.596;9.960;2023-04-24T09:10:56;4.15;;;3.53;;
14342;SDS011;7255;53.596;9.960;2023-04-24T09:13:26;4.30;;;3.90;;
14342;SDS011;7255;53.596;9.960;2023-04-24T09:15:53;4.40;;;4.00;;
14342;SDS011;7255;53.596;9.960;2023-04-24T09:18:22;4.90;;;4.40;;
14342;SDS011;7255;53.596;9.960;2023-04-24T09:20:58;3.65;;;3.35;;
14342;SDS011;7255;53.596;9.960;2023-04-24T09:23:27;4.68;;;4.25;;
14342;SDS011;7255;53.596;9.960;2023-04-24T09:25:54;4.75;;;4.15;;
14342;SDS011;7255;53.596;9.960;2023-04-24T09:28:25;4.22;;;3.83;;
14342;SDS011;7255;53.596;9.960;2023-04-24T09:31:02;4.03;;;3.72;;
14342;SDS011;7255;53.596;9.960;2023-04-24T09:33:29;3.95;;;3.62;;
14342;SDS011;7255;53.596;9.960;2023-04-24T09:35:56;4.25;;;3.87;;
14342;SDS011;7255;53.596;9.960;2023-04-24T09:38:31;3.92;;;3.55;;
14342;SDS011;7255;53.596;9.960;2023-04-24T09:40:59;3.95;;;3.65;;
14342;SDS011;7255;53.596;9.960;2023-04-24T09:43:26;4.53;;;4.12;;
14342;SDS011;7255;53.596;9.960;2023-04-24T09:45:55;4.25;;;3.85;;
14342;SDS011;7255;53.596;9.960;2023-04-24T09:48:29;4.28;;;3.87;;
14342;SDS011;7255;53.596;9.960;2023-04-24T09:50:56;4.22;;;3.50;;
14342;SDS011;7255;53.596;9.960;2023-04-24T09:53:23;4.40;;;4.00;;
14342;SDS011;7255;53.596;9.960;2023-04-24T09:55:52;5.07;;;4.30;;
14342;SDS011;7255;53.596;9.960;2023-04-24T09:58:18;4.32;;;3.92;;
14342;SDS011;7255;53.596;9.960;2023-04-24T10:00:53;6.20;;;4.32;;
14342;SDS011;7255;53.596;9.960;2023-04-24T10:03:22;5.97;;;4.12;;
14342;SDS011;7255;53.596;9.960;2023-04-24T10:05:51;5.95;;;4.07;;
14342;SDS011;7255;53.596;9.960;2023-04-24T10:08:17;4.68;;;4.28;;
14342;SDS011;7255;53.596;9.960;2023-04-24T10:10:44;5.32;;;4.82;;
14342;SDS011;7255;53.596;9.960;2023-04-24T10:13:13;4.95;;;4.53;;
14342;SDS011;7255;53.596;9.960;2023-04-24T10:15:41;5.30;;;4.80;;
14342;SDS011;7255;53.596;9.960;2023-04-24T10:18:07;6.20;;;5.18;;
14342;SDS011;7255;53.596;9.960;2023-04-24T10:20:36;7.20;;;5.93;;
14342;SDS011;7255;53.596;9.960;2023-04-24T10:23:05;6.22;;;5.35;;
14342;SDS011;7255;53.596;9.960;2023-04-24T10:25:32;7.40;;;5.82;;
14342;SDS011;7255;53.596;9.960;2023-04-24T10:28:00;5.55;;;5.03;;
14342;SDS011;7255;53.596;9.960;2023-04-24T10:30:28;9.50;;;6.12;;
14342;SDS011;7255;53.596;9.960;2023-04-24T10:32:57;5.97;;;5.37;;
14342;SDS011;7255;53.596;9.960;2023-04-24T10:35:25;6.78;;;5.78;;
14342;SDS011;7255;53.596;9.960;2023-04-24T10:37:54;7.47;;;5.75;;
14342;SDS011;7255;53.596;9.960;2023-04-24T10:40:25;8.50;;;6.47;;
14342;SDS011;7255;53.596;9.960;2023-04-24T10:42:52;7.35;;;5.95;;
14342;SDS011;7255;53.596;9.960;2023-04-24T10:45:19;8.68;;;5.68;;
14342;SDS011;7255;53.596;9.960;2023-04-24T10:47:57;6.25;;;5.65;;
14342;SDS011;7255;53.596;9.960;2023-04-24T10:50:26;7.25;;;5.95;;
14342;SDS011;7255;53.596;9.960;2023-04-24T10:52:55;6.43;;;5.82;;
14342;SDS011;7255;53.596;9.960;2023-04-24T10:55:42;6.75;;;6.15;;
14342;SDS011;7255;53.596;9.960;2023-04-24T10:58:09;10.60;;;8.40;;
14342;SDS011;7255;53.596;9.960;2023-04-24T11:00:36;6.78;;;5.93;;
14342;SDS011;7255;53.596;9.960;2023-04-24T11:03:05;8.90;;;6.20;;
14342;SDS011;7255;53.596;9.960;2023-04-24T11:05:49;8.68;;;5.65;;
14342;SDS011;7255;53.596;9.960;2023-04-24T11:08:21;7.82;;;6.53;;
14342;SDS011;7255;53.596;9.960;2023-04-24T11:10:54;7.87;;;5.53;;
14342;SDS011;7255;53.596;9.960;2023-04-24T11:13:22;6.65;;;5.28;;
14342;SDS011;7255;53.596;9.960;2023-04-24T11:18:42;7.30;;;6.25;;
14342;SDS011;7255;53.596;9.960;2023-04-24T11:21:16;5.90;;;5.28;;
14342;SDS011;7255;53.596;9.960;2023-04-24T11:23:43;8.32;;;6.05;;
14342;SDS011;7255;53.596;9.960;2023-04-24T11:26:10;6.03;;;5.28;;
14342;SDS011;7255;53.596;9.960;2023-04-24T11:28:43;5.75;;;5.20;;
14342;SDS011;7255;53.596;9.960;2023-04-24T11:34:11;5.70;;;4.72;;
14342;SDS011;7255;53.596;9.960;2023-04-24T11:36:39;5.50;;;4.90;;
14342;SDS011;7255;53.596;9.960;2023-04-24T11:39:06;6.12;;;4.72;;
14342;SDS011;7255;53.596;9.960;2023-04-24T11:41:32;6.97;;;5.15;;
14342;SDS011;7255;53.596;9.960;2023-04-24T11:43:59;6.18;;;5.55;;
14342;SDS011;7255;53.596;9.960;2023-04-24T11:46:27;7.15;;;5.15;;
14342;SDS011;7255;53.596;9.960;2023-04-24T11:48:54;5.15;;;4.65;;
14342;SDS011;7255;53.596;9.960;2023-04-24T11:51:21;6.40;;;5.80;;
14342;SDS011;7255;53.596;9.960;2023-04-24T11:53:48;6.20;;;5.60;;
14342;SDS011;7255;53.596;9.960;2023-04-24T11:56:16;7.00;;;5.32;;
14342;SDS011;7255;53.596;9.960;2023-04-24T11:58:44;5.75;;;5.15;;
14342;SDS011;7255;53.596;9.960;2023-04-24T12:01:10;6.10;;;5.45;;
14342;SDS011;7255;53.596;9.960;2023-04-24T12:03:37;5.37;;;4.80;;
14342;SDS011;7255;53.596;9.960;2023-04-24T12:06:06;4.82;;;4.28;;
14342;SDS011;7255;53.596;9.960;2023-04-24T12:08:35;4.68;;;4.18;;
14342;SDS011;7255;53.596;9.960;2023-04-24T12:11:01;4.55;;;4.03;;
14342;SDS011;7255;53.596;9.960;2023-04-24T12:13:28;5.68;;;4.55;;
14342;SDS011;7255;53.596;9.960;2023-04-24T12:15:54;4.93;;;4.40;;
14342;SDS011;7255;53.596;9.960;2023-04-24T12:18:22;4.45;;;4.05;;
14342;SDS011;7255;53.596;9.960;2023-04-24T12:20:48;5.00;;;4.40;;
14342;SDS011;7255;53.596;9.960;2023-04-24T12:23:15;5.25;;;4.25;;
14342;SDS011;7255;53.596;9.960;2023-04-24T12:25:43;4.35;;;3.92;;
14342;SDS011;7255;53.596;9.960;2023-04-24T12:28:10;4.30;;;3.90;;
14342;SDS011;7255;53.596;9.960;2023-04-24T12:30:39;4.10;;;3.70;;
14342;SDS011;7255;53.596;9.960;2023-04-24T12:33:09;5.85;;;4.35;;
14342;SDS011;7255;53.596;9.960;2023-04-24T12:35:35;4.05;;;3.65;;
14342;SDS011;7255;53.596;9.960;2023-04-24T12:38:05;5.07;;;4.57;;
14342;SDS011;7255;53.596;9.960;2023-04-24T12:40:33;4.65;;;4.22;;
14342;SDS011;7255;53.596;9.960;2023-04-24T12:43:00;5.20;;;4.32;;
14342;SDS011;7255;53.596;9.960;2023-04-24T12:45:27;4.47;;;4.07;;
14342;SDS011;7255;53.596;9.960;2023-04-24T12:47:53;4.80;;;4.20;;
14342;SDS011;7255;53.596;9.960;2023-04-24T12:50:20;5.53;;;4.87;;
14342;SDS011;7255;53.596;9.960;2023-04-24T12:52:46;4.78;;;4.32;;
14342;SDS011;7255;53.596;9.960;2023-04-24T12:55:13;5.25;;;4.50;;
14342;SDS011;7255;53.596;9.960;2023-04-24T12:57:40;6.53;;;4.80;;
14342;SDS011;7255;53.596;9.960;2023-04-24T13:00:08;7.12;;;4.60;;
14342;SDS011;7255;53.596;9.960;2023-04-24T13:02:34;6.80;;;4.55;;
14342;SDS011;7255;53.596;9.960;2023-04-24T13:05:01;5.40;;;4.90;;
14342;SDS011;7255;53.596;9.960;2023-04-24T13:07:28;4.50;;;4.10;;
14342;SDS011;7255;53.596;9.960;2023-04-24T13:09:55;4.60;;;3.92;;
14342;SDS011;7255;53.596;9.960;2023-04-24T13:12:21;5.35;;;4.35;;
14342;SDS011;7255;53.596;9.960;2023-04-24T13:14:49;4.32;;;3.90;;
14342;SDS011;7255;53.596;9.960;2023-04-24T13:17:17;4.62;;;4.22;;
14342;SDS011;7255;53.596;9.960;2023-04-24T13:19:43;4.12;;;3.78;;
14342;SDS011;7255;53.596;9.960;2023-04-24T13:22:10;4.30;;;3.87;;
14342;SDS011;7255;53.596;9.960;2023-04-24T13:24:38;4.85;;;4.40;;
14342;SDS011;7255;53.596;9.960;2023-04-24T13:27:06;4.30;;;3.90;;
14342;SDS011;7255;53.596;9.960;2023-04-24T13:29:33;4.80;;;3.67;;
14342;SDS011;7255;53.596;9.960;2023-04-24T13:31:59;3.97;;;3.67;;
14342;SDS011;7255;53.596;9.960;2023-04-24T13:34:27;4.45;;;4.05;;
14342;SDS011;7255;53.596;9.960;2023-04-24T13:36:54;4.43;;;3.70;;
14342;SDS011;7255;53.596;9.960;2023-04-24T13:39:22;4.10;;;3.70;;
14342;SDS011;7255;53.596;9.960;2023-04-24T13:41:49;4.28;;;3.65;;
14342;SDS011;7255;53.596;9.960;2023-04-24T13:44:15;3.80;;;3.50;;
14342;SDS011;7255;53.596;9.960;2023-04-24T13:46:42;4.00;;;3.70;;
14342;SDS011;7255;53.596;9.960;2023-04-24T13:49:10;3.72;;;3.42;;
14342;SDS011;7255;53.596;9.960;2023-04-24T13:51:37;4.18;;;3.78;;
14342;SDS011;7255;53.596;9.960;2023-04-24T13:54:05;4.07;;;3.47;;
14342;SDS011;7255;53.596;9.960;2023-04-24T13:56:31;4.07;;;3.67;;
14342;SDS011;7255;53.596;9.960;2023-04-24T13:58:57;4.00;;;3.70;;
14342;SDS011;7255;53.596;9.960;2023-04-24T14:01:23;4.70;;;4.30;;
14342;SDS011;7255;53.596;9.960;2023-04-24T14:03:50;4.50;;;4.10;;
14342;SDS011;7255;53.596;9.960;2023-04-24T14:06:17;4.78;;;3.78;;
14342;SDS011;7255;53.596;9.960;2023-04-24T14:08:44;4.10;;;3.70;;
14342;SDS011;7255;53.596;9.960;2023-04-24T14:11:11;5.12;;;4.60;;
14342;SDS011;7255;53.596;9.960;2023-04-24T14:13:37;4.22;;;3.70;;
14342;SDS011;7255;53.596;9.960;2023-04-24T14:16:04;4.25;;;3.78;;
14342;SDS011;7255;53.596;9.960;2023-04-24T14:18:31;3.90;;;3.60;;
14342;SDS011;7255;53.596;9.960;2023-04-24T14:20:57;5.37;;;3.90;;
14342;SDS011;7255;53.596;9.960;2023-04-24T14:23:24;4.65;;;4.00;;
14342;SDS011;7255;53.596;9.960;2023-04-24T14:25:51;4.30;;;3.90;;
14342;SDS011;7255;53.596;9.960;2023-04-24T14:28:18;4.18;;;3.80;;
14342;SDS011;7255;53.596;9.960;2023-04-24T14:30:45;4.22;;;3.83;;
14342;SDS011;7255;53.596;9.960;2023-04-24T14:33:11;4.68;;;4.20;;
14342;SDS011;7255;53.596;9.960;2023-04-24T14:35:38;4.82;;;4.10;;
14342;SDS011;7255;53.596;9.960;2023-04-24T14:38:04;4.87;;;4.45;;
14342;SDS011;7255;53.596;9.960;2023-04-24T14:40:31;7.12;;;5.45;;
14342;SDS011;7255;53.596;9.960;2023-04-24T14:42:59;5.53;;;5.03;;
14342;SDS011;7255;53.596;9.960;2023-04-24T14:45:25;6.78;;;6.10;;
14342;SDS011;7255;53.596;9.960;2023-04-24T14:47:52;6.70;;;6.05;;
14342;SDS011;7255;53.596;9.960;2023-04-24T14:50:19;8.88;;;6.15;;
14342;SDS011;7255;53.596;9.960;2023-04-24T14:52:46;8.30;;;6.80;;
14342;SDS011;7255;53.596;9.960;2023-04-24T14:55:12;8.35;;;6.95;;
14342;SDS011;7255;53.596;9.960;2023-04-24T14:57:39;8.38;;;7.55;;
14342;SDS011;7255;53.596;9.960;2023-04-24T15:00:08;8.95;;;8.02;;
14342;SDS011;7255;53.596;9.960;2023-04-24T15:02:35;9.02;;;7.15;;
14342;SDS011;7255;53.596;9.960;2023-04-24T15:05:05;7.82;;;7.07;;